Time;durP1;ratioP1;P1;durP2;ratioP2;P2;SDS_P1;SDS_P2;PMS_P1;PMS_P2;Temp;Humidity;BMP_temperature;BMP_pressure;BME280_temperature;BME280_humidity;BME280_pressure;Samples;Min_cycle;Max_cycle;Signal;HPM_P1;HPM_P2
2023/09/30 00:01:41;;;;;;;10.40;3.50;;;;;;;15.73;100.00;97044.22;5074816;28;20224;-72
2023/09/30 00:04:09;;;;;;;16.23;4.40;;;;;;;15.69;100.00;97050.94;5074305;28;20207;-71
2023/09/30 00:06:35;;;;;;;11.52;3.08;;;;;;;15.60;100.00;97059.22;5075681;28;20207;-71
2023/09/30 00:09:02;;;;;;;14.65;4.35;;;;;;;15.69;100.00;97060.75;5074633;28;20206;-70
2023/09/30 00:11:28;;;;;;;14.95;4.55;;;;;;;15.61;100.00;97061.69;5075691;28;20416;-72
2023/09/30 00:13:56;;;;;;;18.02;3.67;;;;;;;15.66;100.00;97061.13;5077911;28;20207;-71
2023/09/30 00:16:23;;;;;;;12.80;4.22;;;;;;;15.53;100.00;97068.94;5079043;28;20207;-70
2023/09/30 00:18:49;;;;;;;10.60;4.13;;;;;;;15.90;100.00;97066.91;5078796;28;20219;-71
2023/09/30 00:21:16;;;;;;;14.80;3.92;;;;;;;15.96;100.00;97066.97;5079795;28;20251;-70
2023/09/30 00:23:42;;;;;;;11.30;3.50;;;;;;;15.99;100.00;97071.09;5079765;28;21223;-72
2023/09/30 00:26:09;;;;;;;12.70;4.13;;;;;;;16.01;100.00;97074.34;5077496;28;20207;-72
2023/09/30 00:28:35;;;;;;;15.52;3.63;;;;;;;16.03;100.00;97067.84;5079676;28;20196;-70
2023/09/30 00:31:08;;;;;;;10.02;3.88;;;;;;;16.27;100.00;97059.50;5078100;28;20246;-73
2023/09/30 00:33:35;;;;;;;12.10;3.50;;;;;;;15.98;100.00;97064.13;5079644;28;20687;-71
2023/09/30 00:36:07;;;;;;;14.15;4.35;;;;;;;16.20;100.00;97068.41;5077833;28;20210;-70
2023/09/30 00:38:33;;;;;;;15.25;3.75;;;;;;;15.80;100.00;97069.03;5079099;28;20226;-70
2023/09/30 00:41:00;;;;;;;15.80;3.78;;;;;;;15.96;100.00;97064.31;5078435;28;20228;-70
2023/09/30 00:43:26;;;;;;;15.55;4.10;;;;;;;15.98;100.00;97069.44;5079298;28;20969;-71
2023/09/30 00:46:02;;;;;;;12.57;3.95;;;;;;;16.25;100.00;97066.81;5077872;28;20218;-71
2023/09/30 00:48:30;;;;;;;11.38;3.45;;;;;;;16.16;100.00;97067.13;5079061;28;20200;-70
2023/09/30 00:50:57;;;;;;;8.63;3.33;;;;;;;16.04;100.00;97068.69;5077844;28;20224;-72
2023/09/30 00:53:24;;;;;;;19.15;3.58;;;;;;;16.08;100.00;97065.44;5078826;28;20206;-72
2023/09/30 00:55:51;;;;;;;10.65;3.33;;;;;;;16.02;100.00;97060.88;5077706;28;20215;-73
2023/09/30 00:58:19;;;;;;;12.50;3.65;;;;;;;15.83;100.00;97062.53;5078330;28;20530;-70
2023/09/30 01:00:46;;;;;;;7.65;3.22;;;;;;;15.52;100.00;97062.00;5078907;28;20676;-71
2023/09/30 01:03:14;;;;;;;14.05;4.22;;;;;;;15.51;100.00;97058.50;5078234;28;20201;-71
2023/09/30 01:05:43;;;;;;;9.27;3.25;;;;;;;15.66;100.00;97048.66;5078062;28;20195;-71
2023/09/30 01:08:09;;;;;;;17.98;4.50;;;;;;;15.39;100.00;97057.34;5078097;28;20200;-71
2023/09/30 01:10:36;;;;;;;15.48;4.20;;;;;;;15.50;100.00;97053.38;5078509;28;20242;-72
2023/09/30 01:13:03;;;;;;;14.95;3.47;;;;;;;15.45;100.00;97055.78;5077871;28;20765;-72
2023/09/30 01:15:30;;;;;;;9.35;3.72;;;;;;;15.46;100.00;97052.91;5078326;28;20200;-73
2023/09/30 01:17:57;;;;;;;15.35;5.65;;;;;;;15.45;100.00;97061.94;5078389;28;20316;-72
2023/09/30 01:20:24;;;;;;;13.88;3.45;;;;;;;15.44;100.00;97051.47;5077952;28;20200;-71
2023/09/30 01:22:52;;;;;;;11.95;4.30;;;;;;;15.52;100.00;97062.00;5078620;28;20218;-70
2023/09/30 01:25:19;;;;;;;13.55;3.60;;;;;;;15.05;100.00;97058.91;5078524;28;20207;-70
2023/09/30 01:27:45;;;;;;;15.85;4.43;;;;;;;15.08;100.00;97052.41;5077061;28;20232;-71
2023/09/30 01:30:13;;;;;;;11.23;3.38;;;;;;;15.01;100.00;97051.53;5077110;28;20210;-70
2023/09/30 01:32:40;;;;;;;17.38;3.88;;;;;;;15.04;100.00;97046.66;5078763;28;20200;-70
2023/09/30 01:35:07;;;;;;;14.10;3.95;;;;;;;15.07;100.00;97061.38;5077552;28;20227;-70
2023/09/30 01:37:34;;;;;;;14.10;4.25;;;;;;;15.14;100.00;97071.09;5076568;28;21026;-73
2023/09/30 01:40:03;;;;;;;9.35;2.95;;;;;;;15.26;100.00;97066.97;5078077;28;20208;-72
2023/09/30 01:42:30;;;;;;;12.57;3.55;;;;;;;15.06;100.00;97059.72;5078037;28;20204;-70
2023/09/30 01:44:57;;;;;;;11.38;4.05;;;;;;;15.04;100.00;97065.22;5078020;28;20312;-71
2023/09/30 01:47:24;;;;;;;15.07;4.10;;;;;;;15.05;100.00;97069.53;5076651;28;20675;-71
2023/09/30 01:49:50;;;;;;;12.75;3.55;;;;;;;15.04;100.00;97067.88;5078292;28;20234;-71
2023/09/30 01:52:17;;;;;;;14.57;5.20;;;;;;;15.09;100.00;97070.81;5076374;28;20225;-72
2023/09/30 01:54:43;;;;;;;14.80;3.78;;;;;;;15.11;100.00;97071.47;5076870;28;20219;-72
2023/09/30 01:57:11;;;;;;;11.85;4.07;;;;;;;15.17;100.00;97073.38;5076996;28;20586;-70
2023/09/30 01:59:39;;;;;;;12.32;2.83;;;;;;;14.98;100.00;97068.66;5077292;28;20214;-70
2023/09/30 02:02:05;;;;;;;18.20;4.78;;;;;;;14.99;100.00;97070.25;5076628;28;20473;-69
2023/09/30 02:04:32;;;;;;;14.70;2.85;;;;;;;15.03;100.00;97071.56;5076860;28;20229;-70
2023/09/30 02:06:58;;;;;;;13.35;3.72;;;;;;;14.97;100.00;97074.94;5077167;28;20561;-71
2023/09/30 02:09:25;;;;;;;13.40;3.42;;;;;;;14.86;100.00;97070.09;5077004;28;20204;-69
2023/09/30 02:11:51;;;;;;;14.27;3.78;;;;;;;14.87;100.00;97069.09;5077368;28;20255;-71
2023/09/30 02:14:19;;;;;;;14.82;4.28;;;;;;;14.88;100.00;97068.09;5076054;28;20205;-70
2023/09/30 02:16:45;;;;;;;12.63;3.40;;;;;;;14.77;100.00;97071.19;5077477;28;20200;-71
2023/09/30 02:19:13;;;;;;;16.60;3.83;;;;;;;14.77;100.00;97065.88;5075899;28;20229;-70
2023/09/30 02:21:39;;;;;;;12.23;4.30;;;;;;;14.79;100.00;97066.53;5077495;28;20820;-70
2023/09/30 02:24:07;;;;;;;12.85;4.03;;;;;;;14.91;100.00;97061.59;5076878;28;20200;-70
2023/09/30 02:26:33;;;;;;;12.75;4.15;;;;;;;14.89;100.00;97064.44;5076017;28;20204;-70
2023/09/30 02:29:00;;;;;;;15.90;4.28;;;;;;;15.21;100.00;97058.75;5076492;28;20203;-69
2023/09/30 02:31:28;;;;;;;11.90;4.07;;;;;;;15.29;100.00;97061.31;5076922;28;20226;-70
2023/09/30 02:33:54;;;;;;;11.25;2.88;;;;;;;15.03;100.00;97066.25;5077047;28;20214;-69
2023/09/30 02:36:21;;;;;;;14.57;4.43;;;;;;;15.05;100.00;97060.75;5074623;28;20207;-70
2023/09/30 02:38:48;;;;;;;15.00;4.28;;;;;;;15.01;100.00;97062.97;5075022;28;20231;-69
2023/09/30 02:41:17;;;;;;;14.10;3.72;;;;;;;15.29;100.00;97061.31;5075577;28;20232;-71
2023/09/30 02:43:44;;;;;;;9.80;3.30;;;;;;;15.02;100.00;97061.97;5077662;28;20204;-71
2023/09/30 02:46:10;;;;;;;10.80;3.08;;;;;;;15.14;100.00;97057.81;5075970;28;20298;-71
2023/09/30 02:48:38;;;;;;;10.65;3.17;;;;;;;15.28;100.00;97064.97;5077287;28;20196;-69
2023/09/30 02:51:04;;;;;;;10.73;4.18;;;;;;;15.11;100.00;97063.50;5076174;28;20242;-70
2023/09/30 02:53:31;;;;;;;10.93;2.67;;;;;;;15.11;100.00;97066.16;5076047;28;20210;-71
2023/09/30 02:55:59;;;;;;;17.02;3.90;;;;;;;15.05;100.00;97066.88;5076188;28;20199;-71
2023/09/30 02:58:26;;;;;;;16.00;4.13;;;;;;;15.10;100.00;97067.16;5076637;28;20224;-70
2023/09/30 03:00:52;;;;;;;13.77;4.32;;;;;;;14.98;100.00;97065.16;5075814;28;20227;-70
2023/09/30 03:03:21;;;;;;;12.23;4.18;;;;;;;14.89;100.00;97074.22;5075702;28;20205;-70
2023/09/30 03:05:49;;;;;;;8.35;2.85;;;;;;;15.07;100.00;97078.16;5075337;28;20651;-70
2023/09/30 03:08:16;;;;;;;8.55;3.25;;;;;;;14.91;100.00;97072.22;5075921;28;20204;-69
2023/09/30 03:10:43;;;;;;;10.82;3.22;;;;;;;14.92;100.00;97068.56;5075329;28;20224;-71
2023/09/30 03:13:09;;;;;;;11.32;3.58;;;;;;;14.94;100.00;97066.53;5075780;28;20204;-70
2023/09/30 03:15:36;;;;;;;10.95;3.08;;;;;;;15.01;100.00;97070.09;5074831;28;20279;-70
2023/09/30 03:18:03;;;;;;;9.13;2.65;;;;;;;14.99;100.00;97074.75;5076723;28;20238;-70
2023/09/30 03:20:30;;;;;;;9.13;2.67;;;;;;;14.96;100.00;97070.66;5075401;28;20242;-69
2023/09/30 03:22:59;;;;;;;13.63;4.07;;;;;;;15.19;100.00;97076.66;5075853;28;20234;-70
2023/09/30 03:25:25;;;;;;;13.00;3.60;;;;;;;15.09;100.00;97078.78;5074802;28;20204;-71
2023/09/30 03:27:52;;;;;;;14.45;4.40;;;;;;;15.06;100.00;97081.81;5076222;28;20200;-71
2023/09/30 03:30:20;;;;;;;12.95;4.45;;;;;;;15.15;100.00;97085.19;5075735;28;20199;-69
2023/09/30 03:32:47;;;;;;;12.45;3.88;;;;;;;15.15;100.00;97077.22;5075397;28;20203;-70
2023/09/30 03:35:15;;;;;;;8.98;3.05;;;;;;;15.09;100.00;97076.13;5075803;28;20207;-70
2023/09/30 03:37:41;;;;;;;12.63;3.75;;;;;;;15.13;100.00;97082.72;5074481;28;20284;-71
2023/09/30 03:40:14;;;;;;;12.52;3.55;;;;;;;15.34;100.00;97077.50;5076016;28;20206;-71
2023/09/30 03:42:42;;;;;;;19.80;4.53;;;;;;;15.24;100.00;97071.66;5075473;28;20587;-71
2023/09/30 03:45:09;;;;;;;11.05;3.25;;;;;;;15.24;100.00;97074.31;5075613;28;20196;-71
2023/09/30 03:47:36;;;;;;;11.88;3.47;;;;;;;15.14;100.00;97071.09;5074207;28;20941;-71
2023/09/30 03:50:04;;;;;;;15.93;3.67;;;;;;;15.11;100.00;97071.47;5075762;28;20196;-70
2023/09/30 03:52:32;;;;;;;15.15;3.38;;;;;;;15.04;100.00;97075.03;5074438;28;20292;-69
2023/09/30 03:54:59;;;;;;;12.52;4.00;;;;;;;15.09;100.00;97080.63;5075061;28;20249;-69
2023/09/30 03:57:27;;;;;;;8.10;3.60;;;;;;;15.26;100.00;97072.28;5074945;28;20196;-71
2023/09/30 03:59:54;;;;;;;12.60;3.80;;;;;;;15.10;100.00;97080.44;5076268;28;20204;-69
2023/09/30 04:02:21;;;;;;;13.65;4.00;;;;;;;14.94;100.00;97072.69;5074190;28;20227;-70
2023/09/30 04:04:49;;;;;;;14.82;4.18;;;;;;;15.06;100.00;97079.16;5075048;28;20210;-70
2023/09/30 04:07:16;;;;;;;13.98;3.50;;;;;;;15.07;100.00;97078.16;5075158;28;20203;-71
2023/09/30 04:09:43;;;;;;;14.73;4.03;;;;;;;15.10;100.00;97085.75;5074815;28;20204;-71
2023/09/30 04:12:09;;;;;;;14.20;3.35;;;;;;;15.14;100.00;97084.38;5074976;28;20941;-69
2023/09/30 04:14:37;;;;;;;15.07;3.90;;;;;;;15.32;100.00;97087.50;5075137;28;20200;-70
2023/09/30 04:17:04;;;;;;;10.57;3.55;;;;;;;15.06;100.00;97092.44;5074157;28;20199;-69
2023/09/30 04:19:30;;;;;;;12.07;3.65;;;;;;;15.10;100.00;97093.72;5074787;28;20227;-69
2023/09/30 04:21:57;;;;;;;11.25;3.70;;;;;;;15.19;100.00;97076.66;5074883;28;20279;-70
2023/09/30 04:24:24;;;;;;;13.35;3.85;;;;;;;15.14;100.00;97079.06;5075123;28;20213;-70
2023/09/30 04:26:54;;;;;;;10.80;3.30;;;;;;;15.17;100.00;97089.28;5074703;28;20218;-71
2023/09/30 04:29:20;;;;;;;15.13;3.90;;;;;;;15.18;100.00;97082.97;5075617;28;20203;-71
2023/09/30 04:31:48;;;;;;;14.18;3.28;;;;;;;15.34;100.00;97082.81;5074252;28;20224;-70
2023/09/30 04:34:15;;;;;;;10.15;2.97;;;;;;;15.03;100.00;97076.88;5074731;28;20200;-69
2023/09/30 04:36:42;;;;;;;8.68;2.22;;;;;;;15.10;100.00;97066.34;5074102;28;21212;-69
2023/09/30 04:39:10;;;;;;;10.18;3.15;;;;;;;15.10;100.00;97066.34;5075414;28;20227;-71
2023/09/30 04:41:37;;;;;;;15.35;3.92;;;;;;;15.01;100.00;97062.97;5074577;28;20311;-70
2023/09/30 04:44:03;;;;;;;9.52;2.80;;;;;;;14.88;100.00;97072.56;5074936;28;20203;-70
2023/09/30 04:46:30;;;;;;;14.43;4.03;;;;;;;14.97;100.00;97080.25;5074775;28;20214;-70
2023/09/30 04:48:58;;;;;;;9.85;2.83;;;;;;;15.30;100.00;97086.88;5074572;28;20200;-70
2023/09/30 04:51:25;;;;;;;13.40;3.15;;;;;;;15.20;100.00;97093.41;5074491;28;20223;-70
2023/09/30 04:53:54;;;;;;;12.43;3.40;;;;;;;15.11;100.00;97095.38;5074223;28;20206;-69
2023/09/30 04:56:21;;;;;;;7.68;2.72;;;;;;;15.20;100.00;97099.56;5074257;28;20207;-69
2023/09/30 04:58:48;;;;;;;12.05;3.65;;;;;;;15.11;100.00;97105.13;5073955;28;20223;-70
2023/09/30 05:01:14;;;;;;;8.98;3.30;;;;;;;15.14;100.00;97113.56;5078796;28;20223;-72
2023/09/30 05:03:41;;;;;;;10.65;3.05;;;;;;;15.13;100.00;97122.53;5078040;28;20207;-71
2023/09/30 05:06:09;;;;;;;11.60;3.20;;;;;;;15.31;100.00;97123.00;5076487;28;20685;-70
2023/09/30 05:08:35;;;;;;;10.18;3.58;;;;;;;15.19;100.00;97127.13;5078904;28;20200;-71
2023/09/30 05:11:02;;;;;;;14.63;3.38;;;;;;;15.08;100.00;97129.41;5078485;28;20226;-70
2023/09/30 05:13:28;;;;;;;11.10;2.63;;;;;;;15.20;100.00;97126.13;5077707;28;20202;-71
2023/09/30 05:15:55;;;;;;;13.77;2.78;;;;;;;15.06;100.00;97126.94;5077807;28;20204;-70
2023/09/30 05:18:21;;;;;;;14.77;4.07;;;;;;;14.98;100.00;97136.81;5078613;28;20230;-71
2023/09/30 05:20:49;;;;;;;10.00;3.30;;;;;;;15.15;100.00;97135.63;5076606;28;20230;-71
2023/09/30 05:23:17;;;;;;;10.68;3.35;;;;;;;15.31;100.00;97131.81;5078175;28;20226;-71
2023/09/30 05:25:44;;;;;;;9.85;3.70;;;;;;;15.25;100.00;97129.09;5077002;28;20322;-70
2023/09/30 05:28:11;;;;;;;9.00;3.83;;;;;;;15.26;100.00;97131.56;5077974;28;20218;-70
2023/09/30 05:30:38;;;;;;;11.43;3.38;;;;;;;15.08;100.00;97127.56;5077726;28;20223;-71
2023/09/30 05:33:05;;;;;;;9.10;3.45;;;;;;;15.05;100.00;97133.25;5077898;28;20203;-71
2023/09/30 05:35:32;;;;;;;13.45;4.03;;;;;;;15.19;100.00;97143.06;5077611;28;20207;-70
2023/09/30 05:37:59;;;;;;;8.73;2.70;;;;;;;15.39;100.00;97142.34;5078023;28;20689;-70
2023/09/30 05:40:29;;;;;;;6.68;2.63;;;;;;;15.49;100.00;97152.66;5076949;28;20593;-70
2023/09/30 05:42:58;;;;;;;9.88;3.10;;;;;;;15.51;100.00;97150.66;5077812;28;20203;-70
2023/09/30 05:45:26;;;;;;;9.85;3.58;;;;;;;15.46;100.00;97142.41;5077568;28;20215;-70
2023/09/30 05:47:53;;;;;;;11.60;4.05;;;;;;;15.38;100.00;97134.56;5077692;28;20212;-70
2023/09/30 05:50:24;;;;;;;5.95;2.85;;;;;;;15.47;100.00;97147.53;5077168;28;20200;-71
2023/09/30 05:52:51;;;;;;;16.33;3.08;;;;;;;15.51;100.00;97154.13;5076782;28;20257;-71
2023/09/30 05:55:20;;;;;;;8.48;3.42;;;;;;;15.60;100.00;97158.34;5076795;28;20200;-70
2023/09/30 05:57:48;;;;;;;8.52;3.03;;;;;;;15.80;100.00;97153.28;5076711;28;20230;-70
2023/09/30 06:00:28;;;;;;;12.73;4.53;;;;;;;15.83;100.00;97155.56;5077225;28;20263;-71
2023/09/30 06:02:55;;;;;;;10.50;3.10;;;;;;;15.93;100.00;97149.72;5077756;28;20670;-70
2023/09/30 06:05:23;;;;;;;8.05;3.38;;;;;;;15.97;100.00;97152.84;5076505;28;20200;-70
2023/09/30 06:07:49;;;;;;;12.52;3.78;;;;;;;16.05;100.00;97158.03;5076602;28;20212;-71
2023/09/30 06:10:18;;;;;;;8.30;3.38;;;;;;;16.15;100.00;97156.75;5075185;28;20200;-71
2023/09/30 06:12:46;;;;;;;14.30;4.03;;;;;;;16.29;100.00;97173.69;5077644;28;20199;-70
2023/09/30 06:15:14;;;;;;;9.38;2.53;;;;;;;16.42;100.00;97173.81;5076957;28;20203;-70
2023/09/30 06:17:41;;;;;;;12.45;4.05;;;;;;;16.30;100.00;97159.38;5076131;28;20237;-71
2023/09/30 06:20:15;;;;;;;11.25;3.30;;;;;;;16.45;100.00;97150.31;5076520;28;20224;-71
2023/09/30 06:22:42;;;;;;;13.68;4.03;;;;;;;16.70;100.00;97151.53;5076748;28;20215;-70
2023/09/30 06:25:09;;;;;;;13.88;3.10;;;;;;;16.47;100.00;97150.13;5077278;28;20200;-71
2023/09/30 06:27:35;;;;;;;12.45;3.42;;;;;;;16.44;100.00;97151.31;5076222;28;20199;-71
2023/09/30 06:30:02;;;;;;;9.65;3.67;;;;;;;16.48;100.00;97155.25;5077485;28;20203;-71
2023/09/30 06:32:30;;;;;;;11.65;3.42;;;;;;;16.73;100.00;97151.19;5076155;28;20219;-71
2023/09/30 06:34:57;;;;;;;9.07;3.30;;;;;;;16.64;100.00;97168.28;5077500;28;20331;-71
2023/09/30 06:37:26;;;;;;;12.30;2.97;;;;;;;16.56;100.00;97179.88;5075535;28;20696;-70
2023/09/30 06:39:53;;;;;;;9.55;3.03;;;;;;;16.60;100.00;97165.19;5077305;28;20230;-71
2023/09/30 06:42:19;;;;;;;10.02;4.22;;;;;;;16.52;100.00;97159.16;5076110;28;20223;-71
2023/09/30 06:44:46;;;;;;;8.95;2.95;;;;;;;16.38;100.00;97185.84;5077070;28;20211;-71
2023/09/30 06:47:13;;;;;;;7.80;2.95;;;;;;;16.61;100.00;97195.28;5075838;28;20211;-71
2023/09/30 06:49:41;;;;;;;9.32;3.25;;;;;;;16.97;100.00;97194.16;5075341;28;20202;-71
2023/09/30 06:52:08;;;;;;;9.38;3.50;;;;;;;17.07;100.00;97197.31;5074629;28;20227;-70
2023/09/30 06:54:34;;;;;;;11.07;3.13;;;;;;;17.06;100.00;97206.31;5075436;28;20708;-70
2023/09/30 06:57:01;;;;;;;8.88;3.03;;;;;;;17.17;100.00;97217.28;5076252;28;20204;-70
2023/09/30 06:59:27;;;;;;;9.18;3.65;;;;;;;16.97;100.00;97230.59;5075151;28;20227;-71
2023/09/30 07:01:54;;;;;;;10.68;4.00;;;;;;;17.12;100.00;97224.22;5076650;28;20224;-71
2023/09/30 07:04:21;;;;;;;8.73;3.03;;;;;;;17.16;100.00;97222.78;5075313;28;20203;-70
2023/09/30 07:06:49;;;;;;;6.63;2.45;;;;;;;17.28;100.00;97224.75;5076033;28;20226;-71
2023/09/30 07:09:16;;;;;;;9.27;2.72;;;;;;;17.12;100.00;97242.84;5076172;28;20232;-71
2023/09/30 07:11:44;;;;;;;9.63;2.88;;;;;;;17.18;100.00;97237.56;5075715;28;20306;-71
2023/09/30 07:14:10;;;;;;;8.02;2.47;;;;;;;17.23;100.00;97229.81;5075642;28;20249;-71
2023/09/30 07:16:37;;;;;;;10.85;3.40;;;;;;;17.19;100.00;97223.22;5075320;28;20203;-71
2023/09/30 07:19:03;;;;;;;10.65;3.03;;;;;;;17.26;100.00;97229.47;5076218;28;20249;-71
2023/09/30 07:21:30;;;;;;;7.30;3.38;;;;;;;17.43;100.00;97230.00;5074092;28;20223;-71
2023/09/30 07:23:58;;;;;;;10.85;3.63;;;;;;;17.67;100.00;97238.34;5076217;28;20210;-71
2023/09/30 07:26:25;;;;;;;7.20;2.40;;;;;;;17.58;100.00;97244.84;5075317;28;20210;-71
2023/09/30 07:28:53;;;;;;;9.20;2.80;;;;;;;17.51;100.00;97243.97;5075855;28;20207;-71
2023/09/30 07:31:22;;;;;;;12.48;3.42;;;;;;;17.59;100.00;97251.84;5075188;28;20223;-71
2023/09/30 07:33:49;;;;;;;9.02;2.42;;;;;;;17.58;100.00;97244.00;5075957;28;20546;-71
2023/09/30 07:36:15;;;;;;;6.07;2.78;;;;;;;17.49;100.00;97254.00;5075391;28;20219;-70
2023/09/30 07:38:42;;;;;;;7.45;2.97;;;;;;;17.59;100.00;97246.50;5073751;28;20704;-71
2023/09/30 07:41:10;;;;;;;9.48;3.33;;;;;;;17.85;100.00;97254.63;5076185;28;20235;-71
2023/09/30 07:43:37;;;;;;;8.10;2.42;;;;;;;17.50;100.00;97255.66;5074264;28;20320;-70
2023/09/30 07:46:07;;;;;;;7.85;3.20;;;;;;;17.81;100.00;97256.88;5075723;28;20196;-71
2023/09/30 07:48:33;;;;;;;9.68;3.03;;;;;;;17.63;100.00;97252.25;5074661;28;20261;-71
2023/09/30 07:51:00;;;;;;;10.32;2.80;;;;;;;17.57;100.00;97242.38;5075715;28;21239;-71
2023/09/30 07:53:26;;;;;;;12.23;3.72;;;;;;;17.50;100.00;97238.84;5074600;28;20200;-71
2023/09/30 07:55:54;;;;;;;10.77;2.97;;;;;;;17.75;100.00;97243.50;5075174;28;20204;-71
2023/09/30 07:58:22;;;;;;;8.63;2.35;;;;;;;17.83;100.00;97246.84;5075311;28;20200;-71
2023/09/30 08:00:48;;;;;;;7.93;2.33;;;;;;;18.01;100.00;97247.13;5074615;28;20785;-71
2023/09/30 08:03:15;;;;;;;8.77;2.63;;;;;;;18.10;100.00;97258.44;5075165;28;20214;-71
2023/09/30 08:05:42;;;;;;;6.60;2.30;;;;;;;18.24;100.00;97258.34;5073267;28;20533;-71
2023/09/30 08:08:09;;;;;;;4.97;1.80;;;;;;;18.12;100.00;97261.75;5076229;28;20211;-71
2023/09/30 08:10:36;;;;;;;5.60;1.70;;;;;;;18.33;100.00;97273.16;5073699;28;20227;-71
2023/09/30 08:13:03;;;;;;;5.45;2.08;;;;;;;18.25;100.00;97265.31;5075875;28;20269;-71
2023/09/30 08:15:31;;;;;;;5.68;2.35;;;;;;;18.62;100.00;97257.66;5074542;28;20207;-71
2023/09/30 08:17:58;;;;;;;6.40;2.10;;;;;;;18.61;100.00;97272.00;5075619;28;20200;-71
2023/09/30 08:20:25;;;;;;;5.68;2.17;;;;;;;18.77;100.00;97260.13;5073965;28;20223;-70
2023/09/30 08:22:51;;;;;;;5.47;2.15;;;;;;;18.67;100.00;97259.69;5074631;28;20207;-71
2023/09/30 08:25:18;;;;;;;5.40;2.53;;;;;;;18.65;100.00;97269.78;5074499;28;20206;-71
2023/09/30 08:27:45;;;;;;;7.95;2.63;;;;;;;18.43;100.00;97274.44;5074251;28;20209;-71
2023/09/30 08:30:12;;;;;;;7.53;2.50;;;;;;;18.74;100.00;97277.38;5075338;28;21027;-71
2023/09/30 08:32:39;;;;;;;3.65;2.33;;;;;;;18.94;100.00;97278.25;5073468;28;20204;-71
2023/09/30 08:35:07;;;;;;;6.53;1.70;;;;;;;18.84;100.00;97279.66;5076670;28;20199;-71
2023/09/30 08:37:34;;;;;;;9.13;2.22;;;;;;;18.89;100.00;97286.06;5077627;28;20689;-71
2023/09/30 08:40:01;;;;;;;3.83;1.85;;;;;;;19.06;100.00;97273.97;5079214;28;20223;-71
2023/09/30 08:42:32;;;;;;;7.53;1.90;;;;;;;19.33;100.00;97275.63;5078612;28;20223;-71
2023/09/30 08:44:59;;;;;;;5.50;2.20;;;;;;;19.18;100.00;97273.16;5079658;28;20727;-71
2023/09/30 08:47:27;;;;;;;5.90;1.77;;;;;;;19.31;100.00;97269.66;5077808;28;21025;-71
2023/09/30 08:49:57;;;;;;;4.60;2.25;;;;;;;19.62;100.00;97268.00;5078224;28;20196;-71
2023/09/30 08:52:25;;;;;;;5.38;1.98;;;;;;;19.76;100.00;97275.78;5078624;28;20319;-71
2023/09/30 08:54:52;;;;;;;5.18;2.47;;;;;;;19.73;100.00;97281.56;5077432;28;20207;-71
2023/09/30 08:57:21;;;;;;;5.55;1.50;;;;;;;20.06;100.00;97263.59;5077895;28;20203;-70
2023/09/30 08:59:49;;;;;;;5.45;2.30;;;;;;;19.99;100.00;97272.69;5077866;28;20227;-70
2023/09/30 09:02:16;;;;;;;4.80;2.10;;;;;;;19.92;100.00;97263.84;5079016;28;20284;-71
2023/09/30 09:04:43;;;;;;;2.67;1.70;;;;;;;20.36;100.00;97267.41;5077426;28;20591;-71
2023/09/30 09:07:11;;;;;;;6.03;1.83;;;;;;;20.37;100.00;97261.81;5078740;28;20204;-71
2023/09/30 09:09:38;;;;;;;3.33;2.03;;;;;;;20.47;100.00;97264.06;5077983;28;20211;-71
2023/09/30 09:12:05;;;;;;;5.10;2.42;;;;;;;20.46;100.00;97257.88;5078377;28;20231;-71
2023/09/30 09:14:39;;;;;;;4.93;1.38;;;;;;;20.78;100.00;97253.41;5078236;28;20291;-71
2023/09/30 09:17:07;;;;;;;6.30;2.22;;;;;;;20.53;100.00;97252.47;5074490;28;20736;-71
2023/09/30 09:19:34;;;;;;;3.30;1.55;;;;;;;20.23;100.00;97246.03;5078017;28;20238;-71
2023/09/30 09:22:04;;;;;;;4.53;1.70;;;;;;;20.71;100.00;97234.66;5077291;28;20231;-72
2023/09/30 09:24:33;;;;;;;8.85;3.05;;;;;;;20.63;100.00;97247.47;5078982;28;20214;-72
2023/09/30 09:27:07;;;;;;;3.90;1.55;;;;;;;20.98;100.00;97254.94;5077255;28;20665;-72
2023/09/30 09:29:34;;;;;;;11.68;2.55;;;;;;;20.51;100.00;97266.09;5077569;28;20207;-72
2023/09/30 09:32:10;;;;;;;3.45;1.40;;;;;;;20.59;100.00;97267.69;5077782;28;20224;-71
2023/09/30 09:34:37;;;;;;;5.65;1.42;;;;;;;20.27;100.00;97263.31;5076498;28;20898;-72
2023/09/30 09:37:14;;;;;;;3.10;1.35;;;;;;;20.67;100.00;97260.25;5076269;28;20203;-72
2023/09/30 09:39:49;;;;;;;2.88;1.52;;;;;;;20.68;100.00;97253.84;5077278;28;20227;-70
2023/09/30 09:42:25;;;;;;;3.47;1.75;;;;;;;20.72;100.00;97251.56;5077873;28;20337;-71
2023/09/30 09:44:55;;;;;;;5.10;2.50;;;;;;;21.11;100.00;97255.63;5076142;28;20209;-71
2023/09/30 09:47:22;;;;;;;6.45;2.22;;;;;;;20.96;100.00;97257.81;5076490;28;20474;-72
2023/09/30 09:49:49;;;;;;;7.63;2.30;;;;;;;21.08;100.00;97255.28;5077449;28;20569;-71
2023/09/30 09:52:17;;;;;;;7.43;2.00;;;;;;;20.68;100.00;97255.69;5076344;28;20219;-72
2023/09/30 09:54:46;;;;;;;6.78;1.90;;;;;;;21.15;100.00;97254.16;5075746;28;20678;-72
2023/09/30 09:57:14;;;;;;;5.50;1.80;;;;;;;21.00;99.48;97252.84;5076592;28;20259;-72
2023/09/30 09:59:41;;;;;;;6.72;2.35;;;;;;;21.02;100.00;97245.41;5076544;28;20829;-71
2023/09/30 10:02:14;;;;;;;6.10;2.30;;;;;;;21.08;100.00;97250.72;5077467;28;20227;-72
2023/09/30 10:04:41;;;;;;;5.82;2.20;;;;;;;20.55;100.00;97250.41;5076515;28;20303;-70
2023/09/30 10:07:10;;;;;;;4.53;1.60;;;;;;;20.96;100.00;97249.78;5076866;28;20204;-71
2023/09/30 10:09:38;;;;;;;6.72;2.25;;;;;;;20.79;100.00;97242.47;5077391;28;20340;-72
2023/09/30 10:12:08;;;;;;;6.22;1.60;;;;;;;21.01;100.00;97236.53;5077337;28;20224;-71
2023/09/30 10:14:35;;;;;;;4.82;1.55;;;;;;;21.04;100.00;97235.28;5077011;28;20231;-72
2023/09/30 10:17:03;;;;;;;4.97;2.00;;;;;;;20.98;100.00;97236.97;5076689;28;20778;-70
2023/09/30 10:19:31;;;;;;;2.65;1.67;;;;;;;21.29;100.00;97231.56;5077027;28;20215;-72
2023/09/30 10:22:21;;;;;;;5.38;1.67;;;;;;;21.56;99.01;97230.31;5076693;28;20574;-72
2023/09/30 10:24:48;;;;;;;5.75;1.65;;;;;;;21.23;100.00;97226.25;5076768;28;20276;-72
2023/09/30 10:27:37;;;;;;;6.35;2.17;;;;;;;21.71;100.00;97228.91;5076795;28;20990;-72
2023/09/30 10:30:13;;;;;;;5.63;1.98;;;;;;;21.82;100.00;97217.47;5077488;28;20336;-72
2023/09/30 10:33:11;;;;;;;7.72;2.28;;;;;;;21.82;100.00;97220.16;5076839;28;20215;-71
2023/09/30 10:35:48;;;;;;;6.10;2.00;;;;;;;21.89;98.73;97217.41;5076343;28;20207;-71
2023/09/30 10:38:42;;;;;;;4.88;1.20;;;;;;;21.68;97.94;97217.84;5077624;28;20191;-71
2023/09/30 10:41:09;;;;;;;4.38;1.65;;;;;;;21.47;99.70;97216.34;5039569;28;20598;-71
2023/09/30 10:43:41;;;;;;;11.13;1.95;;;;;;;21.36;98.41;97216.25;5077351;28;20196;-70
2023/09/30 10:46:35;;;;;;;7.90;1.58;;;;;;;21.84;93.03;97223.44;5075154;28;21029;-71
2023/09/30 10:49:32;;;;;;;8.77;1.98;;;;;;;21.88;96.81;97218.44;5076945;28;20265;-71
2023/09/30 10:52:00;;;;;;;8.35;2.42;;;;;;;21.79;92.56;97212.56;5075132;28;20208;-71
2023/09/30 10:54:28;;;;;;;7.78;2.25;;;;;;;21.61;90.36;97217.06;5076315;28;20195;-71
2023/09/30 10:56:55;;;;;;;8.85;2.40;;;;;;;21.40;94.36;97217.47;5074644;28;20219;-71
2023/09/30 10:59:24;;;;;;;4.85;1.58;;;;;;;21.84;91.05;97211.88;5076470;28;20222;-71
2023/09/30 11:01:51;;;;;;;4.72;1.83;;;;;;;21.89;88.39;97209.34;5076880;28;20694;-72
2023/09/30 11:04:19;;;;;;;7.97;2.50;;;;;;;21.42;93.99;97226.09;5076445;28;20730;-72
2023/09/30 11:06:46;;;;;;;5.25;1.92;;;;;;;22.14;91.10;97210.91;5075385;28;20559;-72
2023/09/30 11:09:17;;;;;;;6.35;2.13;;;;;;;22.54;89.32;97215.56;5076989;28;20215;-72
2023/09/30 11:11:48;;;;;;;5.93;2.40;;;;;;;22.60;87.06;97214.66;5074557;28;20224;-72
2023/09/30 11:14:19;;;;;;;6.85;2.20;;;;;;;22.94;86.85;97213.97;5076618;28;20204;-71
2023/09/30 11:16:48;;;;;;;4.95;2.00;;;;;;;22.18;87.60;97204.84;5074879;28;20209;-72
2023/09/30 11:19:14;;;;;;;3.58;1.48;;;;;;;22.04;83.38;97203.34;5076857;28;20760;-72
2023/09/30 11:21:43;;;;;;;5.07;1.77;;;;;;;22.05;87.54;97199.63;5075113;28;20238;-72
2023/09/30 11:24:10;;;;;;;8.70;1.50;;;;;;;21.87;85.87;97196.16;5076818;28;20200;-72
2023/09/30 11:26:36;;;;;;;5.47;2.75;;;;;;;22.11;91.32;97190.69;5075059;28;20203;-73